createdAt,value
2022-09-21T00:01:14.929Z,0.95
2022-09-21T00:03:43.830Z,1.13
2022-09-21T00:06:13.428Z,1.45
2022-09-21T00:08:41.773Z,1.45
2022-09-21T00:11:13.980Z,0.90
2022-09-21T00:13:43.485Z,1.02
2022-09-21T00:16:13.359Z,0.90
2022-09-21T00:21:10.441Z,0.90
2022-09-21T00:23:38.952Z,0.97
2022-09-21T00:26:12.856Z,0.70
2022-09-21T00:28:41.593Z,0.90
2022-09-21T00:31:14.385Z,0.68
2022-09-21T00:33:44.029Z,0.95
2022-09-21T00:36:14.889Z,1.00
2022-09-21T00:38:43.272Z,0.90
2022-09-21T00:41:14.438Z,0.80
2022-09-21T00:43:48.163Z,0.80
2022-09-21T00:46:26.519Z,0.70
2022-09-21T00:48:54.999Z,0.85
2022-09-21T00:51:23.293Z,1.02
2022-09-21T00:53:55.748Z,0.82
2022-09-21T00:56:25.030Z,0.55
2022-09-21T00:58:55.217Z,1.00
2022-09-21T01:01:24.989Z,0.80
2022-09-21T01:03:56.370Z,0.85
2022-09-21T01:06:25.585Z,0.80
2022-09-21T01:08:59.099Z,0.60
2022-09-21T01:11:34.329Z,0.75
2022-09-21T01:14:26.503Z,0.65
2022-09-21T01:17:03.503Z,0.63
2022-09-21T01:20:08.649Z,0.70
2022-09-21T01:22:51.046Z,0.85
2022-09-21T01:25:29.922Z,0.80
2022-09-21T01:28:08.035Z,1.00
2022-09-21T01:30:39.751Z,0.98
2022-09-21T01:33:14.967Z,0.90
2022-09-21T01:35:47.865Z,0.80
2022-09-21T01:38:20.629Z,0.73
2022-09-21T01:40:53.027Z,0.80
2022-09-21T01:43:26.449Z,0.68
2022-09-21T01:46:02.221Z,0.77
2022-09-21T01:48:35.238Z,0.75
2022-09-21T01:51:08.249Z,0.75
2022-09-21T01:53:43.177Z,0.90
2022-09-21T01:56:15.390Z,0.88
2022-09-21T01:58:48.972Z,0.80
2022-09-21T02:01:24.046Z,1.00
2022-09-21T02:03:55.403Z,0.77
2022-09-21T02:06:26.067Z,0.80
2022-09-21T02:08:54.621Z,0.80
2022-09-21T02:11:22.990Z,0.60
2022-09-21T02:13:54.288Z,0.90
2022-09-21T02:16:39.093Z,0.50
2022-09-21T02:19:13.921Z,0.90
2022-09-21T02:21:54.422Z,0.88
2022-09-21T02:24:33.938Z,0.90
2022-09-21T02:27:07.069Z,0.70
2022-09-21T02:29:48.077Z,0.90
2022-09-21T02:32:26.278Z,0.80
2022-09-21T02:35:00.073Z,0.90
2022-09-21T02:37:35.724Z,0.77
2022-09-21T02:40:10.805Z,0.73
2022-09-21T02:42:43.728Z,0.88
2022-09-21T02:45:18.265Z,0.70
2022-09-21T02:47:52.202Z,0.65
2022-09-21T02:50:25.004Z,0.85
2022-09-21T02:52:55.916Z,0.75
2022-09-21T02:55:25.038Z,0.98
2022-09-21T02:57:54.882Z,0.57
2022-09-21T03:00:23.112Z,0.60
2022-09-21T03:02:52.646Z,0.60
2022-09-21T03:05:20.772Z,0.70
2022-09-21T03:07:49.025Z,0.57
2022-09-21T03:10:19.168Z,0.73
2022-09-21T03:12:47.245Z,0.60
2022-09-21T03:15:18.338Z,0.90
2022-09-21T03:17:46.460Z,1.00
2022-09-21T03:20:16.553Z,0.50
2022-09-21T03:25:13.369Z,0.60
2022-09-21T03:27:42.795Z,0.70
2022-09-21T03:30:11.987Z,0.73
2022-09-21T03:32:40.069Z,0.70
2022-09-21T03:35:08.779Z,0.65
2022-09-21T03:37:41.326Z,0.60
2022-09-21T03:40:11.639Z,0.60
2022-09-21T03:42:39.812Z,0.50
2022-09-21T03:45:09.271Z,0.60
2022-09-21T03:47:37.348Z,0.60
2022-09-21T03:50:09.966Z,0.52
2022-09-21T03:52:39.858Z,0.50
2022-09-21T03:55:10.370Z,0.70
2022-09-21T03:57:39.312Z,0.70
2022-09-21T04:00:11.052Z,0.65
2022-09-21T04:02:40.561Z,0.60
2022-09-21T04:05:09.760Z,0.60
2022-09-21T04:07:40.804Z,0.93
2022-09-21T04:10:13.017Z,0.65
2022-09-21T04:12:43.398Z,0.50
2022-09-21T04:15:12.789Z,0.73
2022-09-21T04:17:41.081Z,0.77
2022-09-21T04:20:10.325Z,0.65
2022-09-21T04:22:43.335Z,0.53
2022-09-21T04:25:13.232Z,0.50
2022-09-21T04:27:41.668Z,0.60
2022-09-21T04:30:12.248Z,0.68
2022-09-21T04:32:40.422Z,0.82
2022-09-21T04:35:09.455Z,1.10
2022-09-21T04:37:39.174Z,0.82
2022-09-21T04:40:09.381Z,1.17
2022-09-21T04:42:37.827Z,1.85
2022-09-21T04:45:07.844Z,1.50
2022-09-21T04:50:03.779Z,1.42
2022-09-21T04:52:32.076Z,1.73
2022-09-21T04:55:01.546Z,1.40
2022-09-21T04:57:29.696Z,1.70
2022-09-21T04:59:57.756Z,1.48
2022-09-21T05:02:26.115Z,1.75
2022-09-21T05:04:54.153Z,1.70
2022-09-21T05:07:22.216Z,2.03
2022-09-21T05:10:04.306Z,1.65
2022-09-21T05:12:35.971Z,1.63
2022-09-21T05:15:06.756Z,1.80
2022-09-21T05:17:34.851Z,2.00
2022-09-21T05:20:03.478Z,1.77
2022-09-21T05:22:31.553Z,1.83
2022-09-21T05:24:59.621Z,1.70
2022-09-21T05:27:27.708Z,1.60
2022-09-21T05:29:57.762Z,1.80
2022-09-21T05:35:07.711Z,1.38
2022-09-21T05:37:53.412Z,1.40
2022-09-21T05:40:22.377Z,1.45
2022-09-21T05:42:51.065Z,1.67
2022-09-21T05:45:23.074Z,1.80
2022-09-21T05:47:59.402Z,1.75
2022-09-21T05:50:42.141Z,1.95
2022-09-21T05:53:40.045Z,2.67
2022-09-21T05:56:15.844Z,3.10
2022-09-21T05:58:50.392Z,3.03
2022-09-21T06:01:36.620Z,3.45
2022-09-21T06:04:05.712Z,3.08
2022-09-21T06:06:33.817Z,4.55
2022-09-21T06:09:01.867Z,3.85
2022-09-21T06:11:30.009Z,3.58
2022-09-21T06:13:58.165Z,4.07
2022-09-21T06:16:27.729Z,4.15
2022-09-21T06:18:55.842Z,4.65
2022-09-21T06:21:23.866Z,5.03
2022-09-21T06:23:51.953Z,5.63
2022-09-21T06:26:20.014Z,5.53
2022-09-21T06:28:48.135Z,5.55
2022-09-21T06:31:16.160Z,5.28
2022-09-21T06:33:48.098Z,4.32
2022-09-21T06:36:17.869Z,4.80
2022-09-21T06:38:45.960Z,4.63
2022-09-21T06:41:18.643Z,5.18
2022-09-21T06:43:49.029Z,5.43
2022-09-21T06:46:17.114Z,4.55
2022-09-21T06:48:46.573Z,4.57
2022-09-21T06:51:14.629Z,4.88
2022-09-21T06:53:42.703Z,5.13
2022-09-21T06:56:12.242Z,4.78
2022-09-21T06:58:40.331Z,4.95
2022-09-21T07:01:09.931Z,4.40
2022-09-21T07:03:39.590Z,4.30
2022-09-21T07:06:11.389Z,4.82
2022-09-21T07:11:28.357Z,3.83
2022-09-21T07:13:58.512Z,3.80
2022-09-21T07:16:28.060Z,4.10
2022-09-21T07:18:57.027Z,4.45
2022-09-21T07:21:27.303Z,3.95
2022-09-21T07:23:55.725Z,4.80
2022-09-21T07:26:23.902Z,4.00
2022-09-21T07:28:52.138Z,3.63
2022-09-21T07:31:20.381Z,4.22
2022-09-21T07:33:48.652Z,3.50
2022-09-21T07:36:17.860Z,3.70
2022-09-21T07:38:47.530Z,4.03
2022-09-21T07:41:15.956Z,3.30
2022-09-21T07:43:44.352Z,3.20
2022-09-21T07:46:14.544Z,3.55
2022-09-21T07:48:42.983Z,3.17
2022-09-21T07:51:13.416Z,2.95
2022-09-21T07:53:42.779Z,3.10
2022-09-21T07:56:13.632Z,3.53
2022-09-21T07:59:00.048Z,3.40
2022-09-21T08:01:29.228Z,3.22
2022-09-21T08:03:58.598Z,3.27
2022-09-21T08:06:29.297Z,3.15
2022-09-21T08:08:58.279Z,3.60
2022-09-21T08:11:30.218Z,4.33
2022-09-21T08:14:00.073Z,4.00
2022-09-21T08:18:57.701Z,3.10
2022-09-21T08:21:26.075Z,3.05
2022-09-21T08:23:54.484Z,3.55
2022-09-21T08:26:23.906Z,2.75
2022-09-21T08:28:57.929Z,2.97
2022-09-21T08:31:26.742Z,3.20
2022-09-21T08:33:57.630Z,4.37
2022-09-21T08:36:26.456Z,4.18
2022-09-21T08:38:56.681Z,3.80
2022-09-21T08:41:28.152Z,3.60
2022-09-21T08:44:03.274Z,3.70
2022-09-21T08:46:33.898Z,3.63
2022-09-21T08:49:07.101Z,3.60
2022-09-21T08:51:39.444Z,3.22
2022-09-21T08:54:15.181Z,3.30
2022-09-21T08:57:03.886Z,2.42
2022-09-21T08:59:32.841Z,2.17
2022-09-21T09:02:17.497Z,1.65
2022-09-21T09:04:54.551Z,1.40
2022-09-21T09:07:40.846Z,1.02
2022-09-21T09:10:22.119Z,1.42
2022-09-21T09:13:01.893Z,1.80
2022-09-21T09:15:49.759Z,1.52
2022-09-21T09:18:25.369Z,2.30
2022-09-21T09:20:58.679Z,1.45
2022-09-21T09:23:29.929Z,1.35
2022-09-21T09:26:02.549Z,1.92
2022-09-21T09:28:34.653Z,1.75
2022-09-21T09:31:11.546Z,1.92
2022-09-21T09:33:53.002Z,1.65
2022-09-21T09:36:40.152Z,1.20
2022-09-21T09:39:14.179Z,1.03
2022-09-21T10:19:32.657Z,0.85
2022-09-21T10:22:02.672Z,1.00
2022-09-21T10:24:33.566Z,1.00
2022-09-21T10:27:07.520Z,1.00
2022-09-21T10:29:43.486Z,1.02
2022-09-21T10:32:23.484Z,1.30
2022-09-21T10:35:21.272Z,1.55
2022-09-21T10:37:53.657Z,1.75
2022-09-21T10:40:30.910Z,1.92
2022-09-21T10:43:01.367Z,1.25
2022-09-21T10:45:31.267Z,1.42
2022-09-21T10:48:07.947Z,1.40
2022-09-21T10:50:40.032Z,1.15
2022-09-21T10:53:15.352Z,1.05
2022-09-21T10:55:58.500Z,1.20
2022-09-21T10:58:36.978Z,1.38
2022-09-21T11:03:50.479Z,0.98
2022-09-21T11:06:24.123Z,1.15
2022-09-21T11:08:57.341Z,0.90
2022-09-21T11:11:39.582Z,1.27
2022-09-21T11:14:17.980Z,1.00
2022-09-21T11:16:52.468Z,1.42
2022-09-21T11:19:29.421Z,1.13
2022-09-21T11:22:06.249Z,1.25
2022-09-21T11:24:42.805Z,0.75
2022-09-21T11:27:14.516Z,1.10
2022-09-21T11:29:51.454Z,1.00
2022-09-21T11:32:33.752Z,1.35
2022-09-21T11:35:31.505Z,1.00
2022-09-21T11:38:06.931Z,1.10
2022-09-21T11:40:50.651Z,0.70
2022-09-21T11:43:31.908Z,1.00
2022-09-21T11:46:08.873Z,0.50
2022-09-21T11:48:51.100Z,0.90
2022-09-21T11:51:38.428Z,0.90
2022-09-21T11:54:38.123Z,1.40
2022-09-21T11:57:17.018Z,1.60
2022-09-21T12:00:04.303Z,1.48
2022-09-21T12:03:03.929Z,1.63
2022-09-21T12:05:40.057Z,1.35
2022-09-21T12:09:02.723Z,1.27
2022-09-21T12:11:38.073Z,0.93
2022-09-21T12:14:18.201Z,0.90
2022-09-21T12:16:54.881Z,1.05
2022-09-21T12:19:27.839Z,0.90
2022-09-21T12:22:02.818Z,0.75
2022-09-21T12:24:35.479Z,0.60
2022-09-21T12:27:11.192Z,0.75
2022-09-21T12:29:47.277Z,0.90
2022-09-21T12:32:22.845Z,0.70
2022-09-21T12:34:56.037Z,0.88
2022-09-21T12:37:31.448Z,0.57
2022-09-21T12:40:06.094Z,0.90
2022-09-21T12:42:41.737Z,0.95
2022-09-21T12:45:20.653Z,1.10
2022-09-21T12:47:59.299Z,0.60
2022-09-21T12:50:34.362Z,0.70
2022-09-21T12:53:03.913Z,0.82
2022-09-21T12:55:45.516Z,0.60
2022-09-21T12:58:25.760Z,0.50
2022-09-21T13:01:03.347Z,0.50
2022-09-21T13:03:37.261Z,1.00
2022-09-21T13:06:29.381Z,0.70
2022-09-21T13:08:59.416Z,0.57
2022-09-21T13:11:27.531Z,0.40
2022-09-21T13:14:00.944Z,0.80
2022-09-21T13:16:32.509Z,0.40
2022-09-21T13:19:02.764Z,0.50
2022-09-21T13:21:33.039Z,0.30
2022-09-21T13:24:03.139Z,0.45
2022-09-21T13:26:36.919Z,0.40
2022-09-21T13:29:28.963Z,0.40
2022-09-21T13:31:59.799Z,0.63
2022-09-21T13:34:30.449Z,0.70
2022-09-21T13:37:31.939Z,0.40
2022-09-21T13:40:40.192Z,0.47
2022-09-21T13:43:26.293Z,0.30
2022-09-21T13:45:59.465Z,0.50
2022-09-21T13:48:30.708Z,0.30
2022-09-21T13:51:01.825Z,0.30
2022-09-21T13:53:39.155Z,0.40
2022-09-21T13:56:19.227Z,0.30
2022-09-21T13:58:52.183Z,0.40
2022-09-21T14:01:57.921Z,0.30
2022-09-21T14:04:23.702Z,0.20
2022-09-21T14:06:54.277Z,0.45
2022-09-21T14:09:28.449Z,0.50
2022-09-21T14:11:59.853Z,0.40
2022-09-21T14:14:33.064Z,0.50
2022-09-21T14:17:03.700Z,0.47
2022-09-21T14:20:07.962Z,0.50
2022-09-21T14:22:42.037Z,0.38
2022-09-21T14:25:53.300Z,0.70
2022-09-21T14:28:36.857Z,0.40
2022-09-21T14:31:09.007Z,0.30
2022-09-21T14:33:45.972Z,0.40
2022-09-21T14:36:19.595Z,0.43
2022-09-21T14:38:54.409Z,0.40
2022-09-21T14:41:34.524Z,0.50
2022-09-21T14:44:02.929Z,0.60
2022-09-21T14:46:49.495Z,0.30
2022-09-21T14:49:35.250Z,0.30
2022-09-21T14:52:29.097Z,0.45
2022-09-21T14:55:10.156Z,0.30
2022-09-21T14:57:51.237Z,0.25
2022-09-21T15:00:24.519Z,0.30
2022-09-21T15:03:11.041Z,0.55
2022-09-21T15:05:44.626Z,0.30
2022-09-21T15:08:46.232Z,0.32
2022-09-21T15:11:23.412Z,0.40
2022-09-21T15:14:15.753Z,0.40
2022-09-21T15:16:45.758Z,0.30
2022-09-21T15:19:17.459Z,0.22
2022-09-21T15:21:49.016Z,0.20
2022-09-21T15:24:22.849Z,0.13
2022-09-21T15:26:52.661Z,0.45
2022-09-21T15:29:25.894Z,0.40
2022-09-21T15:31:55.146Z,0.45
2022-09-21T15:34:24.491Z,0.43
2022-09-21T15:36:53.968Z,0.40
2022-09-21T15:39:28.220Z,0.32
2022-09-21T15:42:19.751Z,0.40
2022-09-21T15:44:50.764Z,0.85
2022-09-21T15:47:22.395Z,0.50
2022-09-21T15:49:52.184Z,0.73
2022-09-21T15:52:28.682Z,0.80
2022-09-21T15:55:00.850Z,0.65
2022-09-21T15:57:39.239Z,0.65
2022-09-21T16:00:20.357Z,0.90
2022-09-21T16:03:07.535Z,0.77
2022-09-21T16:05:45.976Z,0.60
2022-09-21T16:08:35.265Z,0.88
2022-09-21T16:11:15.653Z,0.82
2022-09-21T16:14:02.160Z,0.57
2022-09-21T16:16:30.626Z,0.40
2022-09-21T16:19:00.727Z,0.50
2022-09-21T16:21:32.864Z,0.85
2022-09-21T16:24:19.175Z,0.30
2022-09-21T16:26:58.855Z,0.60
2022-09-21T16:29:29.481Z,0.57
2022-09-21T16:32:21.381Z,0.60
2022-09-21T16:34:51.835Z,0.60
2022-09-21T16:39:55.523Z,0.75
2022-09-21T16:42:25.914Z,0.50
2022-09-21T16:44:54.794Z,0.65
2022-09-21T16:47:25.487Z,0.80
2022-09-21T16:49:56.447Z,0.65
2022-09-21T16:52:25.162Z,0.40
2022-09-21T16:54:56.619Z,0.50
2022-09-21T16:57:25.925Z,1.35
2022-09-21T17:02:23.668Z,0.90
2022-09-21T17:04:51.822Z,0.70
2022-09-21T17:07:19.998Z,0.68
2022-09-21T17:09:48.369Z,0.47
2022-09-21T17:12:20.387Z,0.55
2022-09-21T17:14:50.127Z,0.50
2022-09-21T17:17:20.945Z,0.70
2022-09-21T17:19:50.049Z,0.90
2022-09-21T17:22:18.648Z,0.70
2022-09-21T17:24:51.361Z,0.60
2022-09-21T17:27:24.301Z,0.63
2022-09-21T17:29:54.028Z,0.60
2022-09-21T17:32:24.285Z,0.70
2022-09-21T17:34:58.868Z,0.55
2022-09-21T17:37:27.186Z,0.82
2022-09-21T17:39:55.330Z,0.70
2022-09-21T17:42:26.013Z,0.77
2022-09-21T17:45:12.541Z,0.40
2022-09-21T17:47:41.800Z,0.45
2022-09-21T17:50:23.053Z,0.50
2022-09-21T17:53:09.584Z,0.77
2022-09-21T17:55:38.535Z,0.75
2022-09-21T17:58:17.412Z,0.70
2022-09-21T18:00:54.492Z,0.70
2022-09-21T18:03:24.831Z,0.50
2022-09-21T18:05:59.449Z,0.50
2022-09-21T18:08:28.719Z,0.70
2022-09-21T18:11:07.524Z,0.82
2022-09-21T18:13:47.125Z,9.87
2022-09-21T18:16:33.727Z,8.98
2022-09-21T18:19:27.547Z,6.80
2022-09-21T18:22:02.581Z,5.05
2022-09-21T18:24:32.317Z,4.00
2022-09-21T18:27:01.825Z,2.90
2022-09-21T18:32:39.693Z,3.13
2022-09-21T18:35:24.846Z,3.13
2022-09-21T18:38:05.667Z,3.00
2022-09-21T18:40:41.519Z,3.13
2022-09-21T18:43:27.573Z,2.70
2022-09-21T18:46:02.833Z,2.08
2022-09-21T18:48:51.713Z,1.60
2022-09-21T18:51:25.909Z,2.03
2022-09-21T18:53:56.458Z,2.03
2022-09-21T18:56:25.763Z,1.88
2022-09-21T18:58:54.756Z,1.60
2022-09-21T19:01:26.889Z,1.90
2022-09-21T19:03:55.604Z,1.55
2022-09-21T19:06:48.431Z,1.77
2022-09-21T19:09:30.793Z,1.80
2022-09-21T19:12:07.239Z,1.90
2022-09-21T19:14:44.407Z,1.55
2022-09-21T19:17:28.839Z,1.60
2022-09-21T19:20:12.493Z,1.77
2022-09-21T19:22:48.405Z,1.55
2022-09-21T19:25:24.872Z,1.67
2022-09-21T19:27:59.470Z,1.65
2022-09-21T19:30:28.285Z,1.52
2022-09-21T19:33:00.577Z,1.50
2022-09-21T19:35:30.714Z,1.52
2022-09-21T19:38:01.488Z,1.80
2022-09-21T19:40:32.904Z,1.33
2022-09-21T19:43:16.199Z,1.15
2022-09-21T19:46:05.039Z,1.35
2022-09-21T19:48:42.564Z,1.63
2022-09-21T19:51:14.452Z,1.63
2022-09-21T19:54:00.497Z,1.17
2022-09-21T19:56:46.976Z,1.10
2022-09-21T19:59:32.278Z,1.20
2022-09-21T20:02:04.117Z,1.40
2022-09-21T20:04:40.672Z,1.63
2022-09-21T20:07:18.966Z,1.20
2022-09-21T20:09:57.298Z,1.38
2022-09-21T20:12:29.928Z,1.40
2022-09-21T20:15:04.422Z,1.27
2022-09-21T20:17:37.382Z,1.27
2022-09-21T20:20:13.842Z,1.35
2022-09-21T20:22:42.950Z,1.20
2022-09-21T20:25:17.663Z,1.50
2022-09-21T20:27:48.433Z,1.25
2022-09-21T20:30:18.665Z,1.10
2022-09-21T20:32:50.822Z,1.45
2022-09-21T20:35:23.913Z,1.08
2022-09-21T20:37:52.409Z,1.45
2022-09-21T20:40:24.673Z,1.27
2022-09-21T20:42:53.143Z,1.35
2022-09-21T20:45:21.610Z,0.95
2022-09-21T20:47:50.439Z,1.27
2022-09-21T20:50:21.024Z,0.95
2022-09-21T20:52:49.653Z,0.93
2022-09-21T20:55:20.385Z,1.27
2022-09-21T20:57:48.814Z,1.20
2022-09-21T21:00:18.603Z,1.60
2022-09-21T21:02:47.025Z,1.52
2022-09-21T21:05:15.374Z,3.05
2022-09-21T21:07:44.809Z,2.38
2022-09-21T21:10:14.164Z,2.45
2022-09-21T21:12:42.880Z,2.78
2022-09-21T21:15:12.507Z,2.38
2022-09-21T21:17:42.156Z,2.33
2022-09-21T21:20:11.558Z,2.08
2022-09-21T21:22:39.943Z,2.30
2022-09-21T21:25:10.252Z,2.35
2022-09-21T21:27:38.849Z,2.10
2022-09-21T21:30:08.631Z,2.08
2022-09-21T21:32:37.162Z,2.35
2022-09-21T21:35:06.092Z,2.17
2022-09-21T21:37:34.197Z,2.67
2022-09-21T21:40:03.355Z,2.40
2022-09-21T21:42:32.852Z,2.63
2022-09-21T21:45:00.911Z,3.35
2022-09-21T21:47:44.335Z,2.20
2022-09-21T21:50:12.521Z,2.45
2022-09-21T21:52:40.920Z,2.10
2022-09-21T21:55:10.172Z,2.20
2022-09-21T21:57:40.014Z,2.70
2022-09-21T22:02:37.381Z,1.77
2022-09-21T22:05:05.861Z,1.88
2022-09-21T22:07:33.967Z,2.17
2022-09-21T22:10:02.040Z,1.70
2022-09-21T22:12:30.080Z,1.92
2022-09-21T22:14:59.646Z,2.80
2022-09-21T22:17:27.752Z,2.33
2022-09-21T22:19:56.402Z,1.92
2022-09-21T22:22:24.694Z,2.30
2022-09-21T22:24:52.773Z,1.83
2022-09-21T22:27:20.793Z,1.92
2022-09-21T22:29:48.872Z,2.00
2022-09-21T22:32:18.857Z,1.85
2022-09-21T22:34:46.928Z,1.98
2022-09-21T22:37:14.976Z,1.88
2022-09-21T22:39:43.821Z,1.80
2022-09-21T22:42:12.133Z,1.90
2022-09-21T22:44:40.209Z,2.05
2022-09-21T22:47:08.283Z,1.80
2022-09-21T22:49:37.819Z,2.08
2022-09-21T22:52:06.047Z,1.60
2022-09-21T22:54:34.415Z,1.98
2022-09-21T22:57:02.471Z,1.80
2022-09-21T22:59:30.550Z,1.80
2022-09-21T23:01:58.576Z,1.88
2022-09-21T23:04:26.745Z,1.83
2022-09-21T23:06:56.213Z,1.98
2022-09-21T23:09:24.336Z,1.70
2022-09-21T23:11:53.788Z,2.13
2022-09-21T23:14:23.061Z,1.73
2022-09-21T23:16:51.327Z,1.80
2022-09-21T23:19:19.418Z,1.90
2022-09-21T23:21:50.435Z,1.65
2022-09-21T23:24:20.783Z,2.20
2022-09-21T23:26:51.526Z,1.95
2022-09-21T23:29:19.693Z,2.10
2022-09-21T23:31:47.842Z,1.80
2022-09-21T23:34:17.123Z,1.73
2022-09-21T23:36:45.988Z,2.30
2022-09-21T23:39:15.561Z,1.98
2022-09-21T23:41:45.310Z,1.70
2022-09-21T23:44:13.434Z,1.80
2022-09-21T23:46:41.786Z,1.83
2022-09-21T23:49:10.306Z,2.03
2022-09-21T23:51:38.421Z,1.50
2022-09-21T23:54:06.612Z,1.70
2022-09-21T23:56:35.047Z,1.63
2022-09-21T23:59:05.513Z,1.42
